Chennai, India

11:04 AM IST on July 31, 2016 (GMT +0530)
Chennai International | | Change Station

Elev 52 ft 12.99 °N, 80.18 °E | Updated 34 minutes ago

Mostly Cloudy
Mostly Cloudy
86 °F
Feels Like 92 °F
N
8
Wind Variable Wind from WSW
Gusts 20 mph

Today
High -- | Low -- °F
--% Chance of Precip.
Yesterday
High -- | Low -- °F
Precip. -- in
Pressure 29.71 in
Visibility 5.0 miles
Clouds Few 2000 ft
Mostly Cloudy 10000 ft
Heat Index 92 °F
Dew Point 72 °F
Humidity 62%
Rainfall 0.00 in
Snow Depth Not available.
5:54 AM 6:36 PM
Waning Crescent, 8% visible
METAR VOMM 310500Z 24007G17KT 8000 FEW020 BKN100 30/22 Q1006 NOSIG
Pressure 29.71 in
Visibility 5.0 miles
Clouds Few 2000 ft
Mostly Cloudy 10000 ft
Heat Index 92 °F
Dew Point 72 °F
Humidity 62%
Rainfall 0.00 in
Snow Depth Not available.
5:54 AM 6:36 PM
Waning Crescent, 8% visible
METAR VOMM 310500Z 24007G17KT 8000 FEW020 BKN100 30/22 Q1006 NOSIG

10-Day Weather Forecast

No radar image for this location.
×

Almanac

Astronomy

Jul. 31, 2016 Rise Set
Actual Time
Civil Twilight
Nautical Twilight
Astronomical Twilight
Moon
Length of Visible Light
Length of Day
Tomorrow will be .
, % of the Moon is Illuminated

Today's Extremes

Country Highs Country Lows

Community

WunderPhotos

Upload Photos

1,928,766 photos uploaded!

WunderBlog® & News

Nearby

Air Quality

  Air Quality AQ Index Pollutant
Not available.

Snow Depth

Station Depth Elevation

Earthquake Activity

City Distance Mag. Time & Date
Minimum magnitude displayed is 2.5.

Coastal Water Temperatures

Place Temperature

Stations

Nearby Weather Stations

Station Location Temp. Windchill Dew Point Humidity Wind Precip. Elev Updated Type